createdAt,value
2023-01-21T00:03:47.588Z,3.51
2023-01-21T00:08:50.429Z,3.44
2023-01-21T00:13:53.134Z,3.56
2023-01-21T00:18:58.291Z,3.64
2023-01-21T00:24:01.032Z,3.44
2023-01-21T00:29:03.895Z,2.98
2023-01-21T00:34:08.013Z,2.84
2023-01-21T00:39:10.933Z,2.67
2023-01-21T00:44:13.646Z,2.50
2023-01-21T00:49:17.767Z,2.44
2023-01-21T00:54:20.654Z,2.50
2023-01-21T00:59:23.402Z,2.43
2023-01-21T01:04:27.480Z,2.31
2023-01-21T01:09:30.593Z,2.62
2023-01-21T01:14:33.512Z,2.85
2023-01-21T01:19:37.669Z,3.12
2023-01-21T01:24:40.459Z,3.35
2023-01-21T01:29:43.195Z,3.44
2023-01-21T01:34:47.276Z,3.62
2023-01-21T01:39:50.033Z,3.15
2023-01-21T01:44:59.161Z,3.22
2023-01-21T01:50:05.319Z,3.27
2023-01-21T01:55:09.692Z,3.33
2023-01-21T02:00:14.415Z,3.15
2023-01-21T02:05:18.843Z,3.34
2023-01-21T02:10:21.792Z,3.30
2023-01-21T02:15:30.224Z,3.67
2023-01-21T02:20:56.493Z,3.60
2023-01-21T02:26:35.903Z,3.83
2023-01-21T02:32:11.682Z,3.50
2023-01-21T02:37:20.755Z,3.38
2023-01-21T02:42:32.779Z,3.30
2023-01-21T02:47:42.141Z,3.49
2023-01-21T02:52:46.214Z,3.31
2023-01-21T02:57:53.054Z,3.31
2023-01-21T03:03:23.100Z,3.55
2023-01-21T03:08:35.097Z,3.45
2023-01-21T03:14:00.693Z,3.72
2023-01-21T03:19:08.043Z,4.04
2023-01-21T03:24:15.393Z,4.03
2023-01-21T03:29:23.559Z,4.22
2023-01-21T03:34:30.968Z,3.80
2023-01-21T03:39:42.622Z,3.78
2023-01-21T03:44:47.140Z,3.65
2023-01-21T03:49:54.627Z,3.69
2023-01-21T03:54:58.820Z,3.58
2023-01-21T04:00:01.551Z,3.61
2023-01-21T04:05:07.888Z,3.61
2023-01-21T04:10:12.639Z,3.79
2023-01-21T04:15:15.537Z,3.95
2023-01-21T04:20:18.814Z,4.11
2023-01-21T04:25:23.137Z,4.04
2023-01-21T04:30:25.884Z,3.90
2023-01-21T04:35:28.648Z,3.86
2023-01-21T04:40:32.891Z,4.00
2023-01-21T04:45:35.718Z,4.13
2023-01-21T04:50:39.667Z,4.01
2023-01-21T04:55:43.804Z,4.04
2023-01-21T05:00:46.538Z,4.21
2023-01-21T05:05:49.419Z,3.96
2023-01-21T05:10:53.509Z,4.08
2023-01-21T05:15:56.858Z,4.03
2023-01-21T05:20:59.675Z,4.07
2023-01-21T05:26:04.599Z,3.98
2023-01-21T05:31:07.491Z,3.78
2023-01-21T05:36:11.130Z,3.81
2023-01-21T05:41:15.313Z,3.76
2023-01-21T05:46:18.307Z,3.75
2023-01-21T05:51:21.196Z,3.74
2023-01-21T05:56:25.583Z,3.72
2023-01-21T06:01:28.426Z,3.72
2023-01-21T06:06:31.615Z,3.72
2023-01-21T06:11:35.824Z,3.75
2023-01-21T06:16:38.614Z,3.67
2023-01-21T06:21:41.533Z,3.62
2023-01-21T06:26:45.710Z,3.75
2023-01-21T06:31:48.713Z,3.75
2023-01-21T06:36:51.798Z,3.71
2023-01-21T06:41:55.988Z,3.78
2023-01-21T06:47:00.921Z,3.66
2023-01-21T06:52:04.986Z,3.60
2023-01-21T06:57:09.246Z,3.37
2023-01-21T07:02:13.877Z,3.44
2023-01-21T07:07:16.777Z,3.61
2023-01-21T07:12:20.982Z,3.55
2023-01-21T07:17:23.804Z,3.63
2023-01-21T07:22:26.529Z,3.44
2023-01-21T07:27:30.634Z,3.62
2023-01-21T07:32:33.421Z,3.61
2023-01-21T07:37:41.431Z,3.63
2023-01-21T07:42:51.205Z,3.61
2023-01-21T07:47:55.139Z,3.31
2023-01-21T07:52:59.554Z,3.48
2023-01-21T07:58:03.754Z,3.59
2023-01-21T08:03:06.606Z,3.71
2023-01-21T08:08:09.367Z,3.67
2023-01-21T08:13:13.481Z,3.43
2023-01-21T08:18:16.282Z,3.46
2023-01-21T08:23:19.034Z,3.56
2023-01-21T08:28:24.079Z,3.56
2023-01-21T08:33:26.864Z,3.81
2023-01-21T08:38:30.155Z,3.66
2023-01-21T08:43:34.227Z,3.62
2023-01-21T08:48:38.775Z,4.07
2023-01-21T08:53:41.673Z,4.24
2023-01-21T08:58:46.048Z,4.61
2023-01-21T09:03:48.794Z,4.53
2023-01-21T09:08:51.607Z,4.08
2023-01-21T09:13:57.931Z,4.50
2023-01-21T09:19:00.717Z,4.15
2023-01-21T09:24:03.735Z,4.53
2023-01-21T09:29:07.910Z,4.60
2023-01-21T09:34:11.656Z,3.73
2023-01-21T09:39:14.492Z,4.05
2023-01-21T09:44:25.923Z,4.20
2023-01-21T09:49:32.062Z,4.39
2023-01-21T09:54:37.741Z,4.59
2023-01-21T09:59:56.179Z,4.78
2023-01-21T10:05:18.296Z,4.59
2023-01-21T10:10:29.887Z,4.63
2023-01-21T10:15:45.144Z,4.71
2023-01-21T10:20:52.236Z,4.86
2023-01-21T10:25:57.261Z,4.93
2023-01-21T10:31:08.183Z,5.22
2023-01-21T10:36:51.651Z,5.08
2023-01-21T10:42:13.530Z,5.25
2023-01-21T10:47:29.999Z,5.19
2023-01-21T10:52:41.122Z,5.23
2023-01-21T10:57:56.990Z,5.41
2023-01-21T11:03:05.951Z,5.71
2023-01-21T11:08:14.740Z,5.62
2023-01-21T11:13:17.573Z,5.99
2023-01-21T11:18:30.505Z,5.96
2023-01-21T11:23:35.706Z,5.88
2023-01-21T11:28:38.656Z,6.06
2023-01-21T11:33:43.985Z,6.06
2023-01-21T11:38:49.180Z,5.58
2023-01-21T11:43:54.108Z,5.80
2023-01-21T11:49:18.604Z,5.57
2023-01-21T11:54:23.055Z,5.88
2023-01-21T11:59:33.920Z,5.88
2023-01-21T12:04:39.119Z,5.66
2023-01-21T12:09:42.121Z,6.02
2023-01-21T12:14:53.024Z,6.47
2023-01-21T12:20:13.028Z,6.26
2023-01-21T12:25:30.530Z,6.06
2023-01-21T12:30:42.698Z,6.10
2023-01-21T12:35:51.516Z,5.83
2023-01-21T12:41:00.675Z,5.19
2023-01-21T12:46:10.725Z,5.23
2023-01-21T12:51:21.308Z,5.10
2023-01-21T12:56:31.688Z,4.86
2023-01-21T13:01:46.405Z,5.48
2023-01-21T13:06:59.384Z,5.21
2023-01-21T13:12:05.629Z,4.61
2023-01-21T13:17:18.009Z,4.66
2023-01-21T13:22:34.789Z,4.60
2023-01-21T13:27:45.113Z,4.60
2023-01-21T13:32:54.441Z,4.67
2023-01-21T13:38:08.799Z,4.70
2023-01-21T13:43:25.221Z,4.78
2023-01-21T13:48:42.752Z,4.49
2023-01-21T13:54:03.689Z,4.53
2023-01-21T13:59:13.488Z,4.61
2023-01-21T14:04:26.511Z,4.70
2023-01-21T14:09:38.440Z,4.61
2023-01-21T14:14:58.737Z,4.72
2023-01-21T14:20:26.545Z,4.78
2023-01-21T14:25:46.529Z,4.69
2023-01-21T14:30:58.893Z,4.69
2023-01-21T14:36:08.999Z,4.60
2023-01-21T14:41:13.717Z,4.48
2023-01-21T14:46:32.661Z,4.42
2023-01-21T14:51:37.849Z,4.31
2023-01-21T14:56:53.176Z,4.40
2023-01-21T15:02:01.500Z,4.46
2023-01-21T15:07:07.697Z,4.13
2023-01-21T15:12:17.461Z,4.19
2023-01-21T15:17:45.839Z,4.05
2023-01-21T15:23:05.229Z,4.16
2023-01-21T15:28:38.190Z,4.02
2023-01-21T15:33:47.590Z,3.82
2023-01-21T15:38:52.034Z,4.06
2023-01-21T15:44:06.466Z,3.60
2023-01-21T15:49:28.606Z,3.77
2023-01-21T15:54:37.943Z,3.63
2023-01-21T15:59:54.583Z,3.66
2023-01-21T16:05:11.067Z,3.44
2023-01-21T16:10:22.436Z,3.34
2023-01-21T16:15:40.038Z,3.25
2023-01-21T16:20:47.259Z,3.19
2023-01-21T16:25:53.340Z,3.05
2023-01-21T16:30:58.952Z,2.94
2023-01-21T16:36:07.269Z,3.14
2023-01-21T16:41:27.495Z,3.16
2023-01-21T16:46:34.572Z,3.20
2023-01-21T16:51:42.970Z,3.08
2023-01-21T16:56:48.277Z,2.75
2023-01-21T17:01:51.402Z,2.63
2023-01-21T17:06:55.762Z,2.35
2023-01-21T17:12:02.916Z,2.29
2023-01-21T17:17:09.535Z,2.39
2023-01-21T17:22:17.449Z,2.57
2023-01-21T17:27:23.262Z,2.64
2023-01-21T17:32:27.991Z,2.49
2023-01-21T17:37:46.192Z,2.33
2023-01-21T17:42:49.049Z,2.40
2023-01-21T17:48:08.695Z,2.79
2023-01-21T17:53:23.165Z,2.76
2023-01-21T17:58:44.783Z,2.79
2023-01-21T18:03:47.603Z,2.73
2023-01-21T18:08:52.800Z,2.73
2023-01-21T18:13:55.622Z,2.94
2023-01-21T18:18:58.633Z,2.96
2023-01-21T18:24:02.796Z,2.97
2023-01-21T18:29:05.596Z,2.68
2023-01-21T18:34:08.743Z,2.54
2023-01-21T18:39:15.029Z,2.67
2023-01-21T18:44:18.129Z,2.50
2023-01-21T18:49:22.893Z,2.76
2023-01-21T18:54:27.037Z,2.72
2023-01-21T18:59:29.911Z,2.99
2023-01-21T19:04:32.699Z,2.94
2023-01-21T19:09:40.774Z,2.91
2023-01-21T19:14:44.167Z,2.96
2023-01-21T19:19:46.999Z,2.87
2023-01-21T19:24:51.356Z,2.74
2023-01-21T19:29:54.478Z,3.02
2023-01-21T19:34:57.811Z,3.00
2023-01-21T19:40:02.290Z,3.08
2023-01-21T19:45:05.724Z,3.09
2023-01-21T19:50:12.018Z,3.15
2023-01-21T19:55:18.071Z,2.96
2023-01-21T20:00:23.419Z,2.82
2023-01-21T20:05:27.667Z,2.59
2023-01-21T20:10:32.338Z,2.26
2023-01-21T20:15:35.677Z,2.30
2023-01-21T20:20:38.496Z,2.51
2023-01-21T20:25:44.540Z,2.62
2023-01-21T20:30:48.291Z,2.43
2023-01-21T20:35:54.682Z,2.35
2023-01-21T20:40:59.304Z,2.74
2023-01-21T20:46:05.466Z,2.63
2023-01-21T20:51:08.983Z,2.72
2023-01-21T20:56:21.997Z,2.65
2023-01-21T21:01:26.747Z,2.61
2023-01-21T21:06:30.548Z,2.44
2023-01-21T21:11:34.728Z,2.33
2023-01-21T21:16:38.117Z,2.38
2023-01-21T21:21:40.926Z,2.35
2023-01-21T21:26:45.890Z,2.39
2023-01-21T21:31:48.863Z,2.29
2023-01-21T21:36:51.701Z,2.39
2023-01-21T21:42:15.872Z,2.50
2023-01-21T21:47:36.416Z,2.26
2023-01-21T21:52:39.170Z,2.43
2023-01-21T21:57:43.400Z,2.14
2023-01-21T22:02:46.168Z,2.23
2023-01-21T22:07:48.945Z,2.30
2023-01-21T22:12:53.220Z,2.35
2023-01-21T22:17:57.024Z,2.25
2023-01-21T22:22:59.832Z,2.19
2023-01-21T22:28:04.103Z,2.32
2023-01-21T22:33:07.556Z,2.08
2023-01-21T22:38:10.333Z,2.31
2023-01-21T22:43:15.513Z,2.30
2023-01-21T22:48:18.483Z,2.33
2023-01-21T22:53:21.484Z,2.30
2023-01-21T22:58:28.227Z,2.41
2023-01-21T23:03:31.826Z,2.21
2023-01-21T23:08:34.736Z,2.19
2023-01-21T23:13:38.917Z,2.26
2023-01-21T23:18:42.653Z,1.97
2023-01-21T23:23:45.658Z,2.26
2023-01-21T23:28:49.791Z,2.13
2023-01-21T23:33:53.628Z,2.19
2023-01-21T23:38:56.419Z,2.20
2023-01-21T23:44:01.430Z,2.37
2023-01-21T23:49:04.202Z,2.11
2023-01-21T23:54:07.027Z,2.10
2023-01-21T23:59:12.984Z,2.14
